createdAt,value
2023-02-23T00:00:39.552Z,100822.50
2023-02-23T00:03:10.017Z,100816.50
2023-02-23T00:05:37.766Z,100819.69
2023-02-23T00:08:08.267Z,100820.91
2023-02-23T00:10:35.743Z,100822.13
2023-02-23T00:13:05.650Z,100821.31
2023-02-23T00:15:33.045Z,100818.09
2023-02-23T00:18:04.621Z,100814.84
2023-02-23T00:20:44.446Z,100806.00
2023-02-23T00:23:12.709Z,100807.97
2023-02-23T00:25:45.647Z,100818.09
2023-02-23T00:28:16.469Z,100803.16
2023-02-23T00:30:48.847Z,100804.34
2023-02-23T00:33:23.255Z,100808.75
2023-02-23T00:35:55.516Z,100799.88
2023-02-23T00:38:25.899Z,100800.34
2023-02-23T00:40:54.715Z,100800.31
2023-02-23T00:43:25.193Z,100794.66
2023-02-23T00:45:55.750Z,100796.25
2023-02-23T00:48:29.205Z,100799.13
2023-02-23T00:51:04.623Z,100783.41
2023-02-23T00:53:33.405Z,100795.03
2023-02-23T00:56:11.292Z,100792.19
2023-02-23T00:58:41.510Z,100776.16
2023-02-23T01:01:15.528Z,100778.13
2023-02-23T01:03:43.549Z,100778.22
2023-02-23T01:06:13.485Z,100778.63
2023-02-23T01:08:43.918Z,100777.38
2023-02-23T01:11:17.475Z,100774.09
2023-02-23T01:13:50.908Z,100787.06
2023-02-23T01:16:27.961Z,100774.16
2023-02-23T01:19:00.438Z,100777.81
2023-02-23T01:21:42.406Z,100784.63
2023-02-23T01:24:15.957Z,100772.09
2023-02-23T01:26:47.407Z,100778.16
2023-02-23T01:29:18.915Z,100770.88
2023-02-23T01:31:52.296Z,100768.03
2023-02-23T01:34:24.065Z,100772.06
2023-02-23T01:36:51.472Z,100765.63
2023-02-23T01:39:20.828Z,100760.75
2023-02-23T01:41:51.880Z,100761.53
2023-02-23T01:44:19.341Z,100762.75
2023-02-23T01:46:53.354Z,100758.75
2023-02-23T01:49:28.411Z,100756.75
2023-02-23T01:52:06.712Z,100752.31
2023-02-23T01:54:51.932Z,100753.41
2023-02-23T01:57:24.906Z,100745.81
2023-02-23T01:59:55.000Z,100743.91
2023-02-23T02:02:33.392Z,100739.47
2023-02-23T02:05:13.343Z,100737.00
2023-02-23T02:07:48.962Z,100736.59
2023-02-23T02:10:39.709Z,100733.84
2023-02-23T02:13:10.438Z,100735.84
2023-02-23T02:15:58.888Z,100727.06
2023-02-23T02:18:41.668Z,100729.94
2023-02-23T02:21:14.824Z,100725.13
2023-02-23T02:23:51.137Z,100728.78
2023-02-23T02:26:33.587Z,100734.03
2023-02-23T02:29:42.168Z,100726.81
2023-02-23T02:32:34.709Z,100732.09
2023-02-23T02:35:05.752Z,100732.91
2023-02-23T02:37:56.923Z,100728.09
2023-02-23T02:40:53.182Z,100717.56
2023-02-23T02:43:36.176Z,100723.25
2023-02-23T02:46:12.261Z,100719.59
2023-02-23T02:48:57.656Z,100720.06
2023-02-23T02:51:35.106Z,100722.44
2023-02-23T02:54:36.657Z,100714.34
2023-02-23T02:57:15.625Z,100718.03
2023-02-23T03:00:10.276Z,100720.03
2023-02-23T03:02:58.839Z,100707.50
2023-02-23T03:05:54.265Z,100717.19
2023-02-23T03:08:51.958Z,100724.50
2023-02-23T03:11:38.258Z,100716.75
2023-02-23T03:14:35.636Z,100708.75
2023-02-23T03:18:01.536Z,100722.44
2023-02-23T03:21:04.318Z,100725.66
2023-02-23T03:24:02.971Z,100718.44
2023-02-23T03:27:17.850Z,100717.22
2023-02-23T03:30:36.289Z,100716.44
2023-02-23T03:33:37.817Z,100715.59
2023-02-23T03:36:32.403Z,100717.19
2023-02-23T03:39:23.380Z,100715.13
2023-02-23T03:42:12.526Z,100714.22
2023-02-23T03:45:04.027Z,100721.88
2023-02-23T03:47:54.202Z,100719.00
2023-02-23T03:50:49.385Z,100727.03
2023-02-23T03:53:53.557Z,100731.03
2023-02-23T03:56:46.607Z,100724.16
2023-02-23T03:59:37.306Z,100729.50
2023-02-23T04:02:29.028Z,100723.38
2023-02-23T04:05:19.205Z,100725.00
2023-02-23T04:08:11.119Z,100729.38
2023-02-23T04:11:04.932Z,100719.66
2023-02-23T04:13:40.572Z,100718.97
2023-02-23T04:16:11.481Z,100725.50
2023-02-23T04:18:45.185Z,100731.84
2023-02-23T04:21:15.229Z,100724.19
2023-02-23T04:23:48.490Z,100728.25
2023-02-23T04:26:21.184Z,100729.78
2023-02-23T04:28:54.527Z,100735.19
2023-02-23T04:31:25.361Z,100724.63
2023-02-23T04:33:55.716Z,100728.19
2023-02-23T04:36:26.930Z,100729.47
2023-02-23T04:38:57.690Z,100725.84
2023-02-23T04:41:28.560Z,100729.88
2023-02-23T04:43:59.110Z,100725.00
2023-02-23T04:46:30.560Z,100731.91
2023-02-23T04:49:01.047Z,100732.66
2023-02-23T04:51:36.649Z,100730.59
2023-02-23T04:54:05.118Z,100734.63
2023-02-23T04:56:35.528Z,100739.00
2023-02-23T04:59:05.313Z,100742.63
2023-02-23T05:01:32.995Z,100738.19
2023-02-23T05:04:02.919Z,100743.84
2023-02-23T05:06:30.970Z,100740.25
2023-02-23T05:09:07.237Z,100735.84
2023-02-23T05:11:38.101Z,100735.38
2023-02-23T05:14:05.611Z,100735.88
2023-02-23T05:16:36.028Z,100741.16
2023-02-23T05:19:03.651Z,100737.53
2023-02-23T05:21:31.544Z,100731.81
2023-02-23T05:24:00.260Z,100734.72
2023-02-23T05:26:28.009Z,100730.25
2023-02-23T05:28:58.225Z,100726.16
2023-02-23T05:31:28.924Z,100734.06
2023-02-23T05:33:59.242Z,100727.81
2023-02-23T05:36:29.054Z,100722.13
2023-02-23T05:39:00.441Z,100731.44
2023-02-23T05:41:30.513Z,100732.66
2023-02-23T05:44:01.120Z,100735.06
2023-02-23T05:46:31.933Z,100735.75
2023-02-23T05:49:01.307Z,100727.72
2023-02-23T05:51:34.903Z,100728.09
2023-02-23T05:54:05.340Z,100736.63
2023-02-23T05:56:32.715Z,100730.56
2023-02-23T05:59:07.688Z,100733.72
2023-02-23T06:01:38.649Z,100736.19
2023-02-23T06:04:09.166Z,100736.16
2023-02-23T06:06:40.021Z,100734.59
2023-02-23T06:09:10.585Z,100737.84
2023-02-23T06:11:43.060Z,100742.31
2023-02-23T06:14:10.638Z,100735.81
2023-02-23T06:16:45.183Z,100744.66
2023-02-23T06:19:16.118Z,100739.88
2023-02-23T06:21:44.691Z,100752.06
2023-02-23T06:24:12.343Z,100747.19
2023-02-23T06:26:48.737Z,100747.19
2023-02-23T06:29:17.073Z,100747.53
2023-02-23T06:31:52.810Z,100756.44
2023-02-23T06:34:21.282Z,100755.66
2023-02-23T06:36:52.944Z,100762.47
2023-02-23T06:39:28.528Z,100765.28
2023-02-23T06:42:01.777Z,100770.94
2023-02-23T06:44:35.342Z,100770.63
2023-02-23T06:47:06.149Z,100774.69
2023-02-23T06:49:37.252Z,100776.28
2023-02-23T06:52:04.710Z,100781.84
2023-02-23T06:54:34.143Z,100786.41
2023-02-23T06:57:10.717Z,100793.38
2023-02-23T06:59:42.878Z,100788.69
2023-02-23T07:02:17.122Z,100788.31
2023-02-23T07:04:47.535Z,100791.75
2023-02-23T07:07:22.720Z,100791.84
2023-02-23T07:09:50.448Z,100792.19
2023-02-23T07:12:25.593Z,100792.34
2023-02-23T07:14:55.310Z,100798.34
2023-02-23T07:17:30.772Z,100786.38
2023-02-23T07:19:58.515Z,100796.47
2023-02-23T07:22:30.388Z,100804.56
2023-02-23T07:25:04.974Z,100794.56
2023-02-23T07:27:39.035Z,100794.13
2023-02-23T07:30:12.536Z,100799.47
2023-02-23T07:32:54.468Z,100799.44
2023-02-23T07:35:24.947Z,100816.09
2023-02-23T07:37:55.967Z,100809.66
2023-02-23T07:40:34.510Z,100818.50
2023-02-23T07:43:08.044Z,100813.25
2023-02-23T07:45:49.270Z,100816.72
2023-02-23T07:48:29.011Z,100814.28
2023-02-23T07:51:10.452Z,100817.50
2023-02-23T07:53:45.033Z,100819.16
2023-02-23T07:56:25.960Z,100816.34
2023-02-23T07:59:09.913Z,100821.63
2023-02-23T08:01:46.027Z,100819.53
2023-02-23T08:04:26.675Z,100823.41
2023-02-23T08:06:58.540Z,100818.53
2023-02-23T08:09:32.716Z,100816.50
2023-02-23T08:12:05.456Z,100820.94
2023-02-23T08:14:33.403Z,100818.88
2023-02-23T08:17:06.697Z,100824.84
2023-02-23T08:19:37.601Z,100820.94
2023-02-23T08:22:11.499Z,100825.47
2023-02-23T08:24:43.030Z,100818.63
2023-02-23T08:27:15.464Z,100815.31
2023-02-23T08:29:49.278Z,100820.13
2023-02-23T08:32:22.917Z,100819.22
2023-02-23T08:34:55.075Z,100819.22
2023-02-23T08:37:25.521Z,100826.16
2023-02-23T08:39:57.044Z,100827.44
2023-02-23T08:42:28.097Z,100832.25
2023-02-23T08:44:55.645Z,100833.84
2023-02-23T08:47:30.150Z,100835.56
2023-02-23T08:50:03.682Z,100827.84
2023-02-23T08:52:34.161Z,100835.91
2023-02-23T08:55:06.072Z,100833.06
2023-02-23T08:57:35.455Z,100842.03
2023-02-23T09:00:14.351Z,100840.75
2023-02-23T09:02:48.571Z,100844.41
2023-02-23T09:05:21.903Z,100841.56
2023-02-23T09:07:52.677Z,100837.91
2023-02-23T09:10:25.082Z,100847.72
2023-02-23T09:12:58.158Z,100839.13
2023-02-23T09:15:28.083Z,100846.88
2023-02-23T09:18:03.518Z,100846.88
2023-02-23T09:20:33.870Z,100839.97
2023-02-23T09:23:10.335Z,100840.75
2023-02-23T09:25:45.290Z,100847.63
2023-02-23T09:28:18.672Z,100845.56
2023-02-23T09:30:49.442Z,100842.31
2023-02-23T09:33:26.462Z,100846.78
2023-02-23T09:36:02.573Z,100850.75
2023-02-23T09:38:38.531Z,100854.78
2023-02-23T09:41:31.197Z,100855.63
2023-02-23T09:44:26.523Z,100847.56
2023-02-23T09:47:21.800Z,100858.44
2023-02-23T09:50:00.349Z,100851.56
2023-02-23T09:52:42.635Z,100853.97
2023-02-23T09:55:21.834Z,100857.28
2023-02-23T09:57:55.033Z,100859.34
2023-02-23T10:00:31.000Z,100856.03
2023-02-23T10:03:04.405Z,100857.22
2023-02-23T10:05:38.260Z,100858.06
2023-02-23T10:08:37.280Z,100852.78
2023-02-23T10:11:43.857Z,100866.13
2023-02-23T10:14:33.217Z,100857.22
2023-02-23T10:17:55.382Z,100864.13
2023-02-23T10:20:50.966Z,100863.72
2023-02-23T10:23:33.829Z,100868.59
2023-02-23T10:26:15.827Z,100863.25
2023-02-23T10:28:46.985Z,100867.81
2023-02-23T10:31:24.311Z,100873.81
2023-02-23T10:33:57.476Z,100872.63
2023-02-23T10:36:46.359Z,100862.88
2023-02-23T10:39:17.043Z,100866.56
2023-02-23T10:41:49.404Z,100870.63
2023-02-23T10:44:27.504Z,100859.69
2023-02-23T10:47:03.481Z,100865.34
2023-02-23T10:49:48.307Z,100866.13
2023-02-23T10:52:42.649Z,100861.03
2023-02-23T10:55:28.831Z,100860.66
2023-02-23T10:58:19.431Z,100864.78
2023-02-23T11:00:53.344Z,100862.31
2023-02-23T11:03:43.252Z,100869.91
2023-02-23T11:06:35.235Z,100869.22
2023-02-23T11:09:45.051Z,100863.25
2023-02-23T11:12:25.493Z,100860.03
2023-02-23T11:14:55.718Z,100853.56
2023-02-23T11:17:37.953Z,100851.50
2023-02-23T11:20:28.421Z,100845.03
2023-02-23T11:23:13.983Z,100857.88
2023-02-23T11:25:45.252Z,100828.84
2023-02-23T11:28:24.925Z,100844.59
2023-02-23T11:30:55.932Z,100847.03
2023-02-23T11:33:36.264Z,100835.31
2023-02-23T11:36:24.396Z,100838.97
2023-02-23T11:39:16.616Z,100833.41
2023-02-23T11:41:47.892Z,100832.97
2023-02-23T11:44:26.031Z,100831.31
2023-02-23T11:46:54.045Z,100826.09
2023-02-23T11:49:33.355Z,100824.44
2023-02-23T11:52:03.733Z,100823.25
2023-02-23T11:54:40.879Z,100825.25
2023-02-23T11:57:25.326Z,100816.75
2023-02-23T12:00:07.401Z,100819.56
2023-02-23T12:02:51.201Z,100818.00
2023-02-23T12:05:31.325Z,100813.09
2023-02-23T12:08:16.853Z,100815.53
2023-02-23T12:10:56.308Z,100818.41
2023-02-23T12:13:38.517Z,100808.28
2023-02-23T12:16:35.493Z,100814.75
2023-02-23T12:19:12.551Z,100809.13
2023-02-23T12:21:48.496Z,100803.03
2023-02-23T12:24:45.641Z,100809.56
2023-02-23T12:27:23.253Z,100803.50
2023-02-23T12:29:59.308Z,100805.13
2023-02-23T12:32:54.680Z,100799.13
2023-02-23T12:35:51.611Z,100794.69
2023-02-23T12:38:33.387Z,100797.53
2023-02-23T12:41:14.953Z,100789.06
2023-02-23T12:44:01.643Z,100791.88
2023-02-23T12:46:48.444Z,100795.16
2023-02-23T12:49:52.536Z,100795.50
2023-02-23T12:52:33.897Z,100782.16
2023-02-23T12:55:11.636Z,100789.44
2023-02-23T12:57:55.011Z,100784.16
2023-02-23T13:00:37.823Z,100774.09
2023-02-23T13:03:27.002Z,100776.47
2023-02-23T13:06:12.215Z,100782.47
2023-02-23T13:09:17.442Z,100782.09
2023-02-23T13:12:26.569Z,100786.16
2023-02-23T13:15:08.201Z,100778.50
2023-02-23T13:17:52.212Z,100770.00
2023-02-23T13:20:56.443Z,100775.66
2023-02-23T13:23:32.478Z,100782.13
2023-02-23T13:26:17.585Z,100776.03
2023-02-23T13:29:10.896Z,100774.06
2023-02-23T13:31:46.788Z,100782.91
2023-02-23T13:34:26.439Z,100778.84
2023-02-23T13:36:57.105Z,100778.84
2023-02-23T13:39:47.698Z,100780.09
2023-02-23T13:42:17.911Z,100785.28
2023-02-23T13:45:07.156Z,100777.59
2023-02-23T13:47:55.590Z,100786.09
2023-02-23T13:50:33.951Z,100786.53
2023-02-23T13:53:05.421Z,100784.91
2023-02-23T13:55:51.264Z,100788.91
2023-02-23T13:58:30.607Z,100773.97
2023-02-23T14:01:08.385Z,100788.53
2023-02-23T14:04:01.231Z,100784.91
2023-02-23T14:06:31.768Z,100782.84
2023-02-23T14:09:15.593Z,100777.59
2023-02-23T14:11:53.910Z,100780.44
2023-02-23T14:14:30.460Z,100780.06
2023-02-23T14:17:16.418Z,100784.53
2023-02-23T14:20:09.846Z,100782.06
2023-02-23T14:22:58.775Z,100782.06
2023-02-23T14:25:36.570Z,100786.84
2023-02-23T14:28:22.162Z,100777.56
2023-02-23T14:31:20.524Z,100783.63
2023-02-23T14:33:53.103Z,100770.72
2023-02-23T14:36:32.589Z,100777.56
2023-02-23T14:39:12.486Z,100778.34
2023-02-23T14:41:51.476Z,100776.75
2023-02-23T14:44:30.800Z,100769.09
2023-02-23T14:47:27.904Z,100776.34
2023-02-23T14:50:05.139Z,100779.22
2023-02-23T14:52:42.144Z,100772.78
2023-02-23T14:55:22.111Z,100778.44
2023-02-23T14:57:54.315Z,100778.47
2023-02-23T15:00:29.239Z,100781.66
2023-02-23T15:03:03.020Z,100782.09
2023-02-23T15:05:36.933Z,100777.69
2023-02-23T15:08:07.842Z,100777.63
2023-02-23T15:10:43.435Z,100783.72
2023-02-23T15:13:21.509Z,100777.66
2023-02-23T15:15:53.125Z,100772.41
2023-02-23T15:18:38.546Z,100781.66
2023-02-23T15:21:16.256Z,100781.66
2023-02-23T15:23:53.128Z,100779.16
2023-02-23T15:26:32.338Z,100774.31
2023-02-23T15:29:14.805Z,100771.56
2023-02-23T15:31:50.805Z,100775.22
2023-02-23T15:34:26.584Z,100768.72
2023-02-23T15:37:03.372Z,100769.56
2023-02-23T15:39:41.842Z,100773.63
2023-02-23T15:42:18.825Z,100776.00
2023-02-23T15:44:46.825Z,100771.91
2023-02-23T15:47:22.398Z,100774.69
2023-02-23T15:50:31.165Z,100762.22
2023-02-23T15:53:26.169Z,100767.53
2023-02-23T15:56:03.030Z,100769.91
2023-02-23T15:58:56.440Z,100768.25
2023-02-23T16:01:33.688Z,100767.50
2023-02-23T16:04:08.177Z,100763.06
2023-02-23T16:06:52.784Z,100764.25
2023-02-23T16:09:29.247Z,100763.94
2023-02-23T16:12:00.065Z,100768.31
2023-02-23T16:15:02.835Z,100760.22
2023-02-23T16:17:46.187Z,100760.19
2023-02-23T16:20:41.555Z,100760.59
2023-02-23T16:23:34.454Z,100757.75
2023-02-23T16:26:18.640Z,100751.31
2023-02-23T16:28:54.062Z,100760.19
2023-02-23T16:31:43.270Z,100757.78
2023-02-23T16:34:25.802Z,100751.41
2023-02-23T16:37:01.543Z,100749.00
2023-02-23T16:39:36.284Z,100744.19
2023-02-23T16:42:21.226Z,100744.25
2023-02-23T16:44:58.612Z,100750.69
2023-02-23T16:47:36.701Z,100750.69
2023-02-23T16:50:21.116Z,100752.28
2023-02-23T16:53:00.476Z,100753.06
2023-02-23T16:55:39.295Z,100749.03
2023-02-23T16:58:21.536Z,100748.63
2023-02-23T17:00:51.973Z,100747.75
2023-02-23T17:03:28.655Z,100756.63
2023-02-23T17:05:59.508Z,100753.81
2023-02-23T17:08:27.314Z,100758.69
2023-02-23T17:11:01.826Z,100758.75
2023-02-23T17:13:34.817Z,100763.47
2023-02-23T17:16:07.074Z,100758.25
2023-02-23T17:18:42.645Z,100763.53
2023-02-23T17:21:14.929Z,100763.13
2023-02-23T17:23:50.910Z,100770.28
2023-02-23T17:26:24.328Z,100769.44
2023-02-23T17:28:57.717Z,100775.47
2023-02-23T17:31:33.493Z,100777.19
2023-02-23T17:34:04.620Z,100776.03
2023-02-23T17:36:37.571Z,100789.78
2023-02-23T17:39:09.659Z,100778.50
2023-02-23T17:41:38.356Z,100780.50
2023-02-23T17:44:10.711Z,100783.25
2023-02-23T17:46:46.193Z,100792.63
2023-02-23T17:49:16.626Z,100792.25
2023-02-23T17:51:51.336Z,100793.41
2023-02-23T17:54:28.800Z,100794.56
2023-02-23T17:57:03.882Z,100796.63
2023-02-23T17:59:37.939Z,100799.06
2023-02-23T18:02:20.834Z,100797.03
2023-02-23T18:04:52.304Z,100806.28
2023-02-23T18:07:22.027Z,100809.06
2023-02-23T18:09:55.414Z,100814.34
2023-02-23T18:12:22.954Z,100811.94
2023-02-23T18:14:53.740Z,100813.50
2023-02-23T18:17:23.715Z,100815.50
2023-02-23T18:19:54.443Z,100813.03
2023-02-23T18:22:24.928Z,100814.94
2023-02-23T18:24:58.297Z,100820.56
2023-02-23T18:27:31.976Z,100812.03
2023-02-23T18:30:07.480Z,100820.16
2023-02-23T18:32:35.218Z,100819.69
2023-02-23T18:35:07.739Z,100820.50
2023-02-23T18:37:38.912Z,100816.88
2023-02-23T18:40:09.652Z,100818.88
2023-02-23T18:42:42.088Z,100824.50
2023-02-23T18:45:14.635Z,100827.34
2023-02-23T18:47:45.001Z,100833.41
2023-02-23T18:50:19.685Z,100828.91
2023-02-23T18:52:53.182Z,100830.19
2023-02-23T18:55:22.286Z,100824.94
2023-02-23T18:57:59.156Z,100836.22
2023-02-23T19:00:40.221Z,100836.59
2023-02-23T19:03:12.860Z,100839.84
2023-02-23T19:05:53.041Z,100837.81
2023-02-23T19:08:23.373Z,100844.28
2023-02-23T19:10:53.964Z,100839.88
2023-02-23T19:13:22.293Z,100846.69
2023-02-23T19:15:55.449Z,100833.78
2023-02-23T19:18:29.060Z,100832.53
2023-02-23T19:20:59.629Z,100830.53
2023-02-23T19:23:31.266Z,100834.56
2023-02-23T19:26:05.532Z,100835.00
2023-02-23T19:28:38.828Z,100836.31
2023-02-23T19:31:12.253Z,100839.13
2023-02-23T19:33:40.884Z,100831.44
2023-02-23T19:36:11.429Z,100844.34
2023-02-23T19:38:45.754Z,100849.56
2023-02-23T19:41:19.253Z,100841.03
2023-02-23T19:43:51.915Z,100848.81
2023-02-23T19:46:25.891Z,100852.44
2023-02-23T19:48:56.769Z,100846.00
2023-02-23T19:51:24.628Z,100843.94
2023-02-23T19:53:57.223Z,100844.75
2023-02-23T19:56:28.075Z,100840.75
2023-02-23T19:59:02.049Z,100847.56
2023-02-23T20:01:30.193Z,100843.25
2023-02-23T20:04:06.594Z,100840.41
2023-02-23T20:06:47.344Z,100844.47
2023-02-23T20:09:19.205Z,100842.88
2023-02-23T20:11:55.158Z,100846.91
2023-02-23T20:14:29.706Z,100844.34
2023-02-23T20:17:03.741Z,100847.56
2023-02-23T20:19:35.021Z,100847.63
2023-02-23T20:22:08.911Z,100856.53
2023-02-23T20:24:39.514Z,100862.84
2023-02-23T20:27:26.543Z,100865.66
2023-02-23T20:30:02.732Z,100863.19
2023-02-23T20:32:33.203Z,100858.72
2023-02-23T20:35:03.864Z,100865.19
2023-02-23T20:37:35.085Z,100860.78
2023-02-23T20:40:20.105Z,100864.03
2023-02-23T20:42:53.598Z,100860.78
2023-02-23T20:45:27.312Z,100871.69
2023-02-23T20:47:55.646Z,100874.09
2023-02-23T20:50:33.902Z,100880.97
2023-02-23T20:53:08.841Z,100877.38
2023-02-23T20:55:38.586Z,100874.94
2023-02-23T20:58:14.509Z,100883.44
2023-02-23T21:00:49.035Z,100880.22
2023-02-23T21:03:20.108Z,100881.81
2023-02-23T21:05:51.692Z,100879.31
2023-02-23T21:08:22.496Z,100878.50
2023-02-23T21:10:50.404Z,100874.91
2023-02-23T21:13:23.341Z,100876.16
2023-02-23T21:16:02.170Z,100877.75
2023-02-23T21:18:35.571Z,100872.03
2023-02-23T21:21:09.994Z,100866.81
2023-02-23T21:23:43.533Z,100875.69
2023-02-23T21:26:15.369Z,100872.50
2023-02-23T21:28:49.380Z,100877.31
2023-02-23T21:31:18.262Z,100874.94
2023-02-23T21:33:49.138Z,100869.22
2023-02-23T21:36:22.599Z,100876.94
2023-02-23T21:38:51.328Z,100882.22
2023-02-23T21:41:22.595Z,100885.47
2023-02-23T21:43:54.078Z,100879.38
2023-02-23T21:46:25.669Z,100883.50
2023-02-23T21:49:00.234Z,100881.47
2023-02-23T21:51:36.469Z,100887.13
2023-02-23T21:54:09.360Z,100886.88
2023-02-23T21:56:39.717Z,100873.56
2023-02-23T21:59:11.116Z,100873.56
2023-02-23T22:01:46.165Z,100867.16
2023-02-23T22:04:17.755Z,100866.34
2023-02-23T22:06:51.109Z,100865.97
2023-02-23T22:09:22.470Z,100867.22
2023-02-23T22:11:50.175Z,100858.25
2023-02-23T22:14:22.306Z,100857.09
2023-02-23T22:16:54.494Z,100847.03
2023-02-23T22:19:22.097Z,100857.06
2023-02-23T22:21:49.467Z,100850.66
2023-02-23T22:24:17.546Z,100850.66
2023-02-23T22:26:54.518Z,100850.13
2023-02-23T22:29:31.993Z,100847.97
2023-02-23T22:32:04.729Z,100849.88
2023-02-23T22:34:38.336Z,100847.94
2023-02-23T22:37:21.987Z,100851.50
2023-02-23T22:39:52.237Z,100842.59
2023-02-23T22:42:22.273Z,100844.22
2023-02-23T22:44:55.324Z,100854.28
2023-02-23T22:47:28.612Z,100844.13
2023-02-23T22:49:59.866Z,100836.56
2023-02-23T22:52:32.691Z,100827.31
2023-02-23T22:55:01.323Z,100823.66
2023-02-23T22:57:37.224Z,100822.00
2023-02-23T23:00:08.392Z,100821.19
2023-02-23T23:02:40.758Z,100816.78
2023-02-23T23:05:11.759Z,100819.16
2023-02-23T23:07:48.872Z,100812.72
2023-02-23T23:10:35.308Z,100813.97
2023-02-23T23:13:05.186Z,100806.75
2023-02-23T23:15:39.183Z,100805.56
2023-02-23T23:18:09.779Z,100811.25
2023-02-23T23:20:43.906Z,100808.06
2023-02-23T23:23:17.253Z,100811.31
2023-02-23T23:25:48.946Z,100809.41
2023-02-23T23:28:24.280Z,100814.53
2023-02-23T23:30:57.689Z,100804.84
2023-02-23T23:33:27.294Z,100808.88
2023-02-23T23:36:03.405Z,100808.88
2023-02-23T23:38:38.606Z,100812.53
2023-02-23T23:41:15.350Z,100809.66
2023-02-23T23:43:51.565Z,100807.25
2023-02-23T23:46:29.874Z,100815.81
2023-02-23T23:49:08.248Z,100805.34
2023-02-23T23:51:44.777Z,100806.06
2023-02-23T23:54:22.908Z,100798.34
2023-02-23T23:56:56.116Z,100805.94
2023-02-23T23:59:26.757Z,100800.31
